createdAt,value
2016-08-26T00:00:38.666Z,34.6
2016-08-26T00:01:38.695Z,34.7
2016-08-26T00:02:38.725Z,34.6
2016-08-26T00:03:38.752Z,34.5
2016-08-26T00:04:38.782Z,34.12
2016-08-26T00:05:38.811Z,34.02
2016-08-26T00:06:38.839Z,34.12
2016-08-26T00:07:38.864Z,34.41
2016-08-26T00:08:38.889Z,34.31
2016-08-26T00:09:38.920Z,34.6
2016-08-26T00:10:38.946Z,34.99
2016-08-26T00:11:38.975Z,34.79
2016-08-26T00:12:39.001Z,34.97
2016-08-26T00:13:39.029Z,35.16
2016-08-26T00:14:39.058Z,34.99
2016-08-26T00:15:39.086Z,35.08
2016-08-26T00:16:39.113Z,35.06
2016-08-26T00:17:39.140Z,35.08
2016-08-26T00:18:39.167Z,35.36
2016-08-26T00:19:39.197Z,35.45
2016-08-26T00:20:39.241Z,35.36
2016-08-26T00:21:39.253Z,35.26
2016-08-26T00:22:42.318Z,35.26
2016-08-26T00:23:39.311Z,35.55
2016-08-26T00:24:39.337Z,35.36
2016-08-26T00:25:39.366Z,35.36
2016-08-26T00:26:39.394Z,35.45
2016-08-26T00:27:39.422Z,35.55
2016-08-26T00:28:39.447Z,35.45
2016-08-26T00:29:39.479Z,35.55
2016-08-26T00:30:39.503Z,35.55
2016-08-26T00:31:39.531Z,35.64
2016-08-26T00:32:39.567Z,35.45
2016-08-26T00:33:39.588Z,35.55
2016-08-26T00:34:39.620Z,35.55
2016-08-26T00:35:39.644Z,35.55
2016-08-26T00:36:39.668Z,35.45
2016-08-26T00:37:39.697Z,35.55
2016-08-26T00:38:39.727Z,35.36
2016-08-26T00:39:39.753Z,35.94
2016-08-26T00:40:39.782Z,36.01
2016-08-26T00:41:39.806Z,36.03
2016-08-26T00:42:39.836Z,35.72
2016-08-26T00:43:39.860Z,35.63
2016-08-26T00:44:39.891Z,35.72
2016-08-26T00:45:39.921Z,35.63
2016-08-26T00:46:39.944Z,35.92
2016-08-26T00:47:39.970Z,36.3
2016-08-26T00:48:39.997Z,36.21
2016-08-26T00:49:40.026Z,36.5
2016-08-26T00:50:40.058Z,36.4
2016-08-26T00:51:40.078Z,36.21
2016-08-26T00:52:40.110Z,36.4
2016-08-26T00:53:40.136Z,36.21
2016-08-26T00:54:40.166Z,36.4
2016-08-26T00:55:40.190Z,36.21
2016-08-26T00:56:40.217Z,36.21
2016-08-26T00:57:40.249Z,36.4
2016-08-26T00:58:40.273Z,36.3
2016-08-26T00:59:40.300Z,36.5
2016-08-26T01:00:40.327Z,36.69
2016-08-26T01:01:40.354Z,36.4
2016-08-26T01:02:40.382Z,36.79
2016-08-26T01:03:40.409Z,36.67
2016-08-26T01:04:40.436Z,36.48
2016-08-26T01:05:40.463Z,36.67
2016-08-26T01:06:40.489Z,36.96
2016-08-26T01:07:40.521Z,36.87
2016-08-26T01:08:40.546Z,36.96
2016-08-26T01:09:40.570Z,36.96
2016-08-26T01:10:40.599Z,37.15
2016-08-26T01:11:40.625Z,36.96
2016-08-26T01:12:40.654Z,36.87
2016-08-26T01:13:40.679Z,37.06
2016-08-26T01:14:40.707Z,36.77
2016-08-26T01:15:40.735Z,36.67
2016-08-26T01:16:40.762Z,36.67
2016-08-26T01:17:40.789Z,36.57
2016-08-26T01:18:40.815Z,37.25
2016-08-26T01:19:40.843Z,37.25
2016-08-26T01:20:40.868Z,36.87
2016-08-26T01:21:40.894Z,37.25
2016-08-26T01:22:40.925Z,37.15
2016-08-26T01:23:40.952Z,37.25
2016-08-26T01:24:40.978Z,37.35
2016-08-26T01:25:41.005Z,37.23
2016-08-26T01:26:41.030Z,37.13
2016-08-26T01:27:41.058Z,37.25
2016-08-26T01:28:41.133Z,37.81
2016-08-26T01:29:41.112Z,37.54
2016-08-26T01:30:41.144Z,37.71
2016-08-26T01:31:41.164Z,37.71
2016-08-26T01:32:41.191Z,37.62
2016-08-26T01:33:41.220Z,37.43
2016-08-26T01:34:41.245Z,37.62
2016-08-26T01:35:41.272Z,37.71
2016-08-26T01:36:41.298Z,37.91
2016-08-26T01:37:41.326Z,38.1
2016-08-26T01:38:41.353Z,37.91
2016-08-26T01:39:41.379Z,37.62
2016-08-26T01:40:41.406Z,38.01
2016-08-26T01:41:41.431Z,37.33
2016-08-26T01:42:41.459Z,37.91
2016-08-26T01:43:41.488Z,37.81
2016-08-26T01:44:41.513Z,37.71
2016-08-26T01:45:41.547Z,37.43
2016-08-26T01:46:41.571Z,38.1
2016-08-26T01:47:41.592Z,38.2
2016-08-26T01:48:41.621Z,38.29
2016-08-26T01:49:41.648Z,38.2
2016-08-26T01:50:41.673Z,38.39
2016-08-26T01:51:41.697Z,38.29
2016-08-26T01:52:41.727Z,38.29
2016-08-26T01:53:41.753Z,37.91
2016-08-26T01:54:41.780Z,38.39
2016-08-26T01:55:41.806Z,38.37
2016-08-26T01:56:41.830Z,37.89
2016-08-26T01:57:41.858Z,38.37
2016-08-26T01:58:41.885Z,38.39
2016-08-26T01:59:41.918Z,38.37
2016-08-26T02:00:41.939Z,38.56
2016-08-26T02:01:41.965Z,38.56
2016-08-26T02:02:41.992Z,38.46
2016-08-26T02:03:42.021Z,38.37
2016-08-26T02:04:42.048Z,38.56
2016-08-26T02:05:42.081Z,38.46
2016-08-26T02:06:42.098Z,38.46
2016-08-26T02:07:42.125Z,38.37
2016-08-26T02:08:42.153Z,38.46
2016-08-26T02:09:42.179Z,38.66
2016-08-26T02:10:42.211Z,38.56
2016-08-26T02:11:42.234Z,38.76
2016-08-26T02:12:42.257Z,38.66
2016-08-26T02:13:42.283Z,38.85
2016-08-26T02:14:42.314Z,38.66
2016-08-26T02:15:42.333Z,38.66
2016-08-26T02:16:42.359Z,38.66
2016-08-26T02:17:42.388Z,38.74
2016-08-26T02:18:42.414Z,38.66
2016-08-26T02:19:42.441Z,38.74
2016-08-26T02:20:42.467Z,38.54
2016-08-26T02:21:42.490Z,38.74
2016-08-26T02:22:42.523Z,38.83
2016-08-26T02:23:42.550Z,38.83
2016-08-26T02:24:42.573Z,38.93
2016-08-26T02:25:42.623Z,38.83
2016-08-26T02:26:42.621Z,38.83
2016-08-26T02:27:42.651Z,38.93
2016-08-26T02:28:42.677Z,39.03
2016-08-26T02:29:42.705Z,38.83
2016-08-26T02:30:42.729Z,39.03
2016-08-26T02:31:42.753Z,39.03
2016-08-26T02:32:42.782Z,39.12
2016-08-26T02:33:42.807Z,39.12
2016-08-26T02:34:42.834Z,39.12
2016-08-26T02:35:42.864Z,39.12
2016-08-26T02:36:42.884Z,39.03
2016-08-26T02:37:42.915Z,39.12
2016-08-26T02:38:42.939Z,39.22
2016-08-26T02:39:43.084Z,39.31
2016-08-26T02:40:43.092Z,39.22
2016-08-26T02:41:43.114Z,39.22
2016-08-26T02:42:43.124Z,39.31
2016-08-26T02:43:43.132Z,39.41
2016-08-26T02:44:43.142Z,39.61
2016-08-26T02:45:43.151Z,39.51
2016-08-26T02:46:43.158Z,39.7
2016-08-26T02:47:43.294Z,39.51
2016-08-26T02:48:43.303Z,39.59
2016-08-26T02:49:43.312Z,39.68
2016-08-26T02:50:43.345Z,39.59
2016-08-26T02:51:43.352Z,39.78
2016-08-26T02:52:43.391Z,39.68
2016-08-26T02:53:43.401Z,39.68
2016-08-26T02:54:43.411Z,39.87
2016-08-26T02:55:43.408Z,39.78
2016-08-26T02:56:43.417Z,39.78
2016-08-26T02:57:43.430Z,39.87
2016-08-26T02:58:43.469Z,39.87
2016-08-26T02:59:43.506Z,39.87
2016-08-26T03:00:43.558Z,39.87
2016-08-26T03:01:43.533Z,40.07
2016-08-26T03:02:43.561Z,39.97
2016-08-26T03:03:43.584Z,40.55
2016-08-26T03:04:43.613Z,39.97
2016-08-26T03:05:43.638Z,40.16
2016-08-26T03:06:43.662Z,40.07
2016-08-26T03:07:43.687Z,40.16
2016-08-26T03:08:43.715Z,40.26
2016-08-26T03:09:43.743Z,40.16
2016-08-26T03:10:43.766Z,40.07
2016-08-26T03:11:43.791Z,40.16
2016-08-26T03:12:43.818Z,40.16
2016-08-26T03:13:43.844Z,40.07
2016-08-26T03:14:43.871Z,40.26
2016-08-26T03:15:43.895Z,40.55
2016-08-26T03:16:43.919Z,40.64
2016-08-26T03:17:43.944Z,40.64
2016-08-26T03:18:43.972Z,40.64
2016-08-26T03:19:43.997Z,40.74
2016-08-26T03:20:44.028Z,40.43
2016-08-26T03:21:44.047Z,40.55
2016-08-26T03:22:44.073Z,40.45
2016-08-26T03:23:44.099Z,40.34
2016-08-26T03:24:44.125Z,40.64
2016-08-26T03:25:44.149Z,40.74
2016-08-26T03:26:44.175Z,41.01
2016-08-26T03:27:44.203Z,41.03
2016-08-26T03:28:44.225Z,40.72
2016-08-26T03:29:44.251Z,40.81
2016-08-26T03:30:44.279Z,40.72
2016-08-26T03:31:44.303Z,40.91
2016-08-26T03:32:44.329Z,41.2
2016-08-26T03:33:44.356Z,40.91
2016-08-26T03:34:44.379Z,41.11
2016-08-26T03:35:44.418Z,40.91
2016-08-26T03:36:44.431Z,40.81
2016-08-26T03:37:44.457Z,40.81
2016-08-26T03:38:44.483Z,40.81
2016-08-26T03:39:44.509Z,41.01
2016-08-26T03:40:44.541Z,40.91
2016-08-26T03:41:44.560Z,41.2
2016-08-26T03:42:44.592Z,41.2
2016-08-26T03:43:44.608Z,40.72
2016-08-26T03:44:44.635Z,41.01
2016-08-26T03:45:44.660Z,41.2
2016-08-26T03:46:44.690Z,41.2
2016-08-26T03:47:44.714Z,41.2
2016-08-26T03:48:44.736Z,41.11
2016-08-26T03:49:44.762Z,41.2
2016-08-26T03:50:44.788Z,41.18
2016-08-26T03:51:44.812Z,41.39
2016-08-26T03:52:44.836Z,41.28
2016-08-26T03:53:44.863Z,41.2
2016-08-26T03:54:44.886Z,41.2
2016-08-26T03:55:44.913Z,41.2
2016-08-26T03:56:44.938Z,41.08
2016-08-26T03:57:44.962Z,41.11
2016-08-26T03:58:45.104Z,41.11
2016-08-26T03:59:45.109Z,41.08
2016-08-26T04:00:45.127Z,41.08
2016-08-26T04:01:45.291Z,41.56
2016-08-26T04:02:45.300Z,41.56
2016-08-26T04:03:45.314Z,41.38
2016-08-26T04:04:45.327Z,41.86
2016-08-26T04:05:45.332Z,41.95
2016-08-26T04:06:45.331Z,41.86
2016-08-26T04:07:45.339Z,41.86
2016-08-26T04:08:45.390Z,41.76
2016-08-26T04:09:45.397Z,41.66
2016-08-26T04:10:45.396Z,41.95
2016-08-26T04:11:45.405Z,41.95
2016-08-26T04:12:45.413Z,42.14
2016-08-26T04:13:45.463Z,41.86
2016-08-26T04:14:45.477Z,42.05
2016-08-26T04:15:45.493Z,42.05
2016-08-26T04:16:45.500Z,42.05
2016-08-26T04:17:45.508Z,42.14
2016-08-26T04:18:45.520Z,41.95
2016-08-26T04:19:45.528Z,41.95
2016-08-26T04:20:45.544Z,42.24
2016-08-26T04:21:45.568Z,42.14
2016-08-26T04:22:45.593Z,42.14
2016-08-26T04:23:45.620Z,42.05
2016-08-26T04:24:45.644Z,42.33
2016-08-26T04:25:45.667Z,42.33
2016-08-26T04:26:45.695Z,42.53
2016-08-26T04:27:45.718Z,42.53
2016-08-26T04:28:45.747Z,42.43
2016-08-26T04:29:45.767Z,42.43
2016-08-26T04:30:45.805Z,42.33
2016-08-26T04:31:45.817Z,42.33
2016-08-26T04:32:45.850Z,42.53
2016-08-26T04:33:45.870Z,42.43
2016-08-26T04:34:45.895Z,42.24
2016-08-26T04:35:45.918Z,42.43
2016-08-26T04:36:45.943Z,42.43
2016-08-26T04:37:45.970Z,42.72
2016-08-26T04:38:45.995Z,42.63
2016-08-26T04:39:46.018Z,42.63
2016-08-26T04:40:46.042Z,42.53
2016-08-26T04:41:46.068Z,42.72
2016-08-26T04:42:46.091Z,43.11
2016-08-26T04:43:46.118Z,42.72
2016-08-26T04:44:46.144Z,42.72
2016-08-26T04:45:46.166Z,42.63
2016-08-26T04:46:46.199Z,42.63
2016-08-26T04:47:46.222Z,43.11
2016-08-26T04:48:46.243Z,43.08
2016-08-26T04:49:46.267Z,42.99
2016-08-26T04:50:46.290Z,42.82
2016-08-26T04:51:46.400Z,43.08
2016-08-26T04:52:46.409Z,43.08
2016-08-26T04:53:46.455Z,42.8
2016-08-26T04:54:46.482Z,42.89
2016-08-26T04:55:46.488Z,42.7
2016-08-26T04:56:46.440Z,42.7
2016-08-26T04:57:46.467Z,42.7
2016-08-26T04:58:46.490Z,42.6
2016-08-26T04:59:46.513Z,42.7
2016-08-26T05:00:46.538Z,42.7
2016-08-26T05:01:46.565Z,42.6
2016-08-26T05:02:46.591Z,42.5
2016-08-26T05:03:46.611Z,42.63
2016-08-26T05:04:46.638Z,42.82
2016-08-26T05:05:46.699Z,42.82
2016-08-26T05:06:46.922Z,42.89
2016-08-26T05:07:46.712Z,42.89
2016-08-26T05:08:46.738Z,43.4
2016-08-26T05:09:46.794Z,43.28
2016-08-26T05:10:46.866Z,43.28
2016-08-26T05:11:46.811Z,43.18
2016-08-26T05:12:46.836Z,43.28
2016-08-26T05:13:46.865Z,43.18
2016-08-26T05:14:46.887Z,43.47
2016-08-26T05:15:46.911Z,43.47
2016-08-26T05:16:46.936Z,43.08
2016-08-26T05:17:46.961Z,43.66
2016-08-26T05:18:46.995Z,42.99
2016-08-26T05:19:47.012Z,43.28
2016-08-26T05:20:47.034Z,43.28
2016-08-26T05:21:47.066Z,43.47
2016-08-26T05:22:47.087Z,43.47
2016-08-26T05:23:47.108Z,43.66
2016-08-26T05:24:47.132Z,43.76
2016-08-26T05:25:47.156Z,43.66
2016-08-26T05:26:47.186Z,43.76
2016-08-26T05:27:47.208Z,43.76
2016-08-26T05:28:47.254Z,43.85
2016-08-26T05:29:47.255Z,43.66
2016-08-26T05:30:47.280Z,44.14
2016-08-26T05:31:47.303Z,44.14
2016-08-26T05:32:47.327Z,44.34
2016-08-26T05:33:47.357Z,44.24
2016-08-26T05:34:47.377Z,44.24
2016-08-26T05:35:47.402Z,44.43
2016-08-26T05:36:47.428Z,44.34
2016-08-26T05:37:47.453Z,44.53
2016-08-26T05:38:47.477Z,44.62
2016-08-26T05:39:47.504Z,44.53
2016-08-26T05:40:47.568Z,44.62
2016-08-26T05:41:47.607Z,44.72
2016-08-26T05:42:47.627Z,44.43
2016-08-26T05:43:47.598Z,44.53
2016-08-26T05:44:47.623Z,44.72
2016-08-26T05:45:47.656Z,44.72
2016-08-26T05:46:47.684Z,44.82
2016-08-26T05:47:47.699Z,44.82
2016-08-26T05:48:47.724Z,45.01
2016-08-26T05:49:47.757Z,45.01
2016-08-26T05:50:47.770Z,45.1
2016-08-26T05:51:47.795Z,45.1
2016-08-26T05:52:47.821Z,45.01
2016-08-26T05:53:47.843Z,44.91
2016-08-26T05:54:47.874Z,45.1
2016-08-26T05:55:47.894Z,45.29
2016-08-26T05:56:47.917Z,45.29
2016-08-26T05:57:47.941Z,45.39
2016-08-26T05:58:47.966Z,45.39
2016-08-26T05:59:47.992Z,45.49
2016-08-26T06:00:48.015Z,45.68
2016-08-26T06:01:48.037Z,46.06
2016-08-26T06:02:48.063Z,45.97
2016-08-26T06:03:48.088Z,45.87
2016-08-26T06:04:48.112Z,45.99
2016-08-26T06:05:48.144Z,45.9
2016-08-26T06:06:48.170Z,46.19
2016-08-26T06:07:48.186Z,45.99
2016-08-26T06:08:48.210Z,45.9
2016-08-26T06:09:48.242Z,45.9
2016-08-26T06:10:48.263Z,46.19
2016-08-26T06:11:48.282Z,46.09
2016-08-26T06:12:48.311Z,45.99
2016-08-26T06:13:48.335Z,46.09
2016-08-26T06:14:48.358Z,45.99
2016-08-26T06:15:48.383Z,45.99
2016-08-26T06:16:48.407Z,45.9
2016-08-26T06:17:48.432Z,45.9
2016-08-26T06:18:48.458Z,45.9
2016-08-26T06:19:48.483Z,45.9
2016-08-26T06:20:48.507Z,45.99
2016-08-26T06:21:48.541Z,45.9
2016-08-26T06:22:48.559Z,46.19
2016-08-26T06:23:48.582Z,46.57
2016-08-26T06:24:48.609Z,46.59
2016-08-26T06:25:48.627Z,46.57
2016-08-26T06:26:48.661Z,46.59
2016-08-26T06:27:48.682Z,46.21
2016-08-26T06:28:48.703Z,46.11
2016-08-26T06:29:48.728Z,46.31
2016-08-26T06:30:48.751Z,46.5
2016-08-26T06:31:48.777Z,46.69
2016-08-26T06:32:48.917Z,46.59
2016-08-26T06:33:48.940Z,46.31
2016-08-26T06:34:48.876Z,46.59
2016-08-26T06:35:48.971Z,46.59
2016-08-26T06:36:49.022Z,46.78
2016-08-26T06:37:49.042Z,46.31
2016-08-26T06:38:49.067Z,46.62
2016-08-26T06:39:49.157Z,46.42
2016-08-26T06:40:49.002Z,46.62
2016-08-26T06:41:49.024Z,46.33
2016-08-26T06:42:49.049Z,46.23
2016-08-26T06:43:49.129Z,46.04
2016-08-26T06:44:49.102Z,45.94
2016-08-26T06:45:49.123Z,45.94
2016-08-26T06:46:49.199Z,45.94
2016-08-26T06:47:49.172Z,45.75
2016-08-26T06:48:49.199Z,45.48
2016-08-26T06:49:49.227Z,45.58
2016-08-26T06:50:49.249Z,45.58
2016-08-26T06:51:49.396Z,45.58
2016-08-26T06:52:49.300Z,45.48
2016-08-26T06:53:49.324Z,45.58
2016-08-26T06:54:49.349Z,45.48
2016-08-26T06:55:49.375Z,45.29
2016-08-26T06:56:49.397Z,45.1
2016-08-26T06:57:49.427Z,44.9
2016-08-26T06:58:49.448Z,44.83
2016-08-26T06:59:49.474Z,44.54
2016-08-26T07:00:49.497Z,44.45
2016-08-26T07:01:49.644Z,44.15
2016-08-26T07:02:49.551Z,43.7
2016-08-26T07:03:49.589Z,44.15
2016-08-26T07:04:49.598Z,43.79
2016-08-26T07:05:49.623Z,44.08
2016-08-26T07:06:49.661Z,43.6
2016-08-26T07:07:49.680Z,43.5
2016-08-26T07:08:49.704Z,43.7
2016-08-26T07:09:49.736Z,43.5
2016-08-26T07:10:49.751Z,43.7
2016-08-26T07:11:49.779Z,43.21
2016-08-26T07:12:49.804Z,42.94
2016-08-26T07:13:49.822Z,42.85
2016-08-26T07:14:49.964Z,43.24
2016-08-26T07:15:49.981Z,42.66
2016-08-26T07:16:49.903Z,42.56
2016-08-26T07:17:49.926Z,42.46
2016-08-26T07:18:49.951Z,42.39
2016-08-26T07:19:49.977Z,42.1
2016-08-26T07:20:50.008Z,41.03
2016-08-26T07:21:50.027Z,41.23
2016-08-26T07:22:50.050Z,41.33
2016-08-26T07:23:50.081Z,41.25
2016-08-26T07:24:50.154Z,41.15
2016-08-26T07:25:50.129Z,40.57
2016-08-26T07:26:50.154Z,40.57
2016-08-26T07:27:50.181Z,40.28
2016-08-26T07:28:50.210Z,39.99
2016-08-26T07:29:50.229Z,39.82
2016-08-26T07:30:50.412Z,39.8
2016-08-26T07:31:50.285Z,39.34
2016-08-26T07:32:50.321Z,39.24
2016-08-26T07:33:50.334Z,38.66
2016-08-26T07:34:50.494Z,38.46
2016-08-26T07:35:50.388Z,38.66
2016-08-26T07:36:50.415Z,38.39
2016-08-26T07:37:50.439Z,37.9
2016-08-26T07:38:50.463Z,37.81
2016-08-26T07:39:50.489Z,37.62
2016-08-26T07:40:50.523Z,37.92
2016-08-26T07:41:50.541Z,37.63
2016-08-26T07:42:50.619Z,37.34
2016-08-26T07:43:50.635Z,37.15
2016-08-26T07:44:50.697Z,37.05
2016-08-26T07:45:50.723Z,36.76
2016-08-26T07:46:50.780Z,36.86
2016-08-26T07:47:50.697Z,36.86
2016-08-26T07:48:50.777Z,36.68
2016-08-26T07:49:50.824Z,36.68
2016-08-26T07:50:50.774Z,36.58
2016-08-26T07:51:50.815Z,36.49
2016-08-26T07:52:50.826Z,36
2016-08-26T07:53:50.860Z,35.73
2016-08-26T07:54:50.881Z,35.83
2016-08-26T07:55:50.906Z,35.54
2016-08-26T07:56:50.931Z,35.44
2016-08-26T07:57:50.962Z,35.64
2016-08-26T07:58:51.166Z,35.07
2016-08-26T07:59:51.173Z,34.86
2016-08-26T08:00:51.745Z,34.69
2016-08-26T08:01:51.064Z,34.2
2016-08-26T08:02:51.089Z,34.3
2016-08-26T08:03:51.121Z,33.91
2016-08-26T08:04:51.143Z,33.91
2016-08-26T08:05:51.177Z,34.01
2016-08-26T08:06:51.198Z,33.83
2016-08-26T08:07:51.223Z,33.64
2016-08-26T08:08:51.280Z,33.15
2016-08-26T08:09:51.280Z,33.34
2016-08-26T08:10:51.305Z,33.06
2016-08-26T08:11:51.330Z,32.47
2016-08-26T08:12:51.360Z,32.78
2016-08-26T08:13:51.382Z,32.39
2016-08-26T08:14:51.412Z,31.81
2016-08-26T08:15:51.442Z,31.62
2016-08-26T08:16:51.468Z,31.52
2016-08-26T08:17:51.503Z,31.52
2016-08-26T08:18:51.519Z,31.52
2016-08-26T08:19:51.547Z,31.81
2016-08-26T08:20:51.577Z,31.73
2016-08-26T08:21:51.602Z,31.73
2016-08-26T08:22:51.630Z,31.53
2016-08-26T08:23:51.656Z,31.53
2016-08-26T08:24:51.795Z,31.44
2016-08-26T08:25:51.823Z,31.82
2016-08-26T08:26:51.740Z,31.65
2016-08-26T08:27:51.770Z,31.55
2016-08-26T08:28:51.893Z,31.45
2016-08-26T08:29:51.821Z,31.45
2016-08-26T08:30:52.052Z,31.16
2016-08-26T08:31:51.876Z,30.58
2016-08-26T08:32:51.900Z,30.5
2016-08-26T08:33:51.933Z,30.21
2016-08-26T08:34:51.962Z,29.52
2016-08-26T08:35:51.990Z,29.82
2016-08-26T08:36:52.018Z,29.82
2016-08-26T08:37:52.047Z,29.43
2016-08-26T08:38:52.067Z,29.04
2016-08-26T08:39:52.096Z,28.96
2016-08-26T08:40:52.123Z,29.15
2016-08-26T08:41:52.151Z,29.15
2016-08-26T08:42:52.179Z,29.35
2016-08-26T08:43:52.213Z,29.44
2016-08-26T08:44:52.234Z,29.16
2016-08-26T08:45:52.268Z,29.16
2016-08-26T08:46:52.292Z,29.26
2016-08-26T08:47:52.320Z,29.06
2016-08-26T08:48:52.345Z,28.88
2016-08-26T08:49:53.095Z,28.68
2016-08-26T08:50:52.603Z,28.69
2016-08-26T08:51:52.429Z,28.4
2016-08-26T08:52:52.459Z,28.11
2016-08-26T08:53:52.694Z,28.11
2016-08-26T08:54:52.520Z,27.62
2016-08-26T08:55:52.545Z,27.62
2016-08-26T08:56:52.570Z,27.64
2016-08-26T08:57:52.599Z,28.22
2016-08-26T08:58:52.628Z,28.03
2016-08-26T08:59:52.655Z,28.03
2016-08-26T09:00:52.685Z,27.93
2016-08-26T09:01:52.713Z,27.65
2016-08-26T09:02:52.741Z,27.84
2016-08-26T09:03:53.377Z,27.36
2016-08-26T09:04:52.811Z,27.45
2016-08-26T09:05:52.829Z,27.06
2016-08-26T09:06:52.856Z,27.16
2016-08-26T09:07:52.886Z,27.16
2016-08-26T09:08:52.912Z,26.89
2016-08-26T09:09:52.940Z,26.5
2016-08-26T09:10:52.972Z,26.98
2016-08-26T09:11:53.002Z,26.59
2016-08-26T09:12:53.030Z,26.5
2016-08-26T09:13:53.069Z,26.3
2016-08-26T09:14:53.088Z,26.41
2016-08-26T09:15:53.114Z,26.8
2016-08-26T09:16:53.146Z,26.41
2016-08-26T09:17:53.175Z,26.7
2016-08-26T09:18:53.204Z,26.61
2016-08-26T09:19:53.234Z,26.32
2016-08-26T09:20:53.263Z,26.61
2016-08-26T09:21:53.290Z,25.93
2016-08-26T09:22:53.323Z,26.42
2016-08-26T09:23:53.360Z,26.42
2016-08-26T09:24:53.377Z,25.95
2016-08-26T09:25:53.408Z,26.24
2016-08-26T09:26:53.438Z,26.34
2016-08-26T09:27:53.465Z,26.24
2016-08-26T09:28:53.501Z,25.95
2016-08-26T09:29:53.534Z,26.04
2016-08-26T09:30:53.608Z,25.95
2016-08-26T09:31:53.587Z,25.67
2016-08-26T09:32:53.616Z,25.67
2016-08-26T09:33:53.644Z,25.57
2016-08-26T09:34:53.686Z,25.18
2016-08-26T09:35:53.709Z,25
2016-08-26T09:36:53.734Z,24.71
2016-08-26T09:37:53.765Z,24.51
2016-08-26T09:38:53.795Z,24.41
2016-08-26T09:39:53.823Z,24.12
2016-08-26T09:40:53.863Z,24.32
2016-08-26T09:41:53.884Z,24.22
2016-08-26T09:42:53.912Z,24.42
2016-08-26T09:43:53.947Z,24.52
2016-08-26T09:44:53.978Z,24.22
2016-08-26T09:45:54.005Z,24.22
2016-08-26T09:46:54.032Z,24.13
2016-08-26T09:47:54.066Z,24.22
2016-08-26T09:48:54.098Z,23.94
2016-08-26T09:49:54.127Z,23.65
2016-08-26T09:50:54.154Z,23.75
2016-08-26T09:51:54.187Z,23.55
2016-08-26T09:52:54.216Z,23.55
2016-08-26T09:53:54.249Z,23.47
2016-08-26T09:54:54.286Z,23.37
2016-08-26T09:55:54.310Z,22.69
2016-08-26T09:56:54.344Z,23.09
2016-08-26T09:57:54.372Z,22.88
2016-08-26T09:58:54.403Z,22.8
2016-08-26T09:59:54.432Z,23.48
2016-08-26T10:00:54.465Z,23.38
2016-08-26T10:01:54.493Z,23.28
2016-08-26T10:02:54.528Z,23.09
2016-08-26T10:03:54.555Z,23.09
2016-08-26T10:04:54.587Z,22.71
2016-08-26T10:05:54.618Z,22.22
2016-08-26T10:06:54.655Z,22.71
2016-08-26T10:07:54.681Z,22.81
2016-08-26T10:08:54.712Z,22.31
2016-08-26T10:09:54.742Z,22.23
2016-08-26T10:10:54.772Z,21.84
2016-08-26T10:11:55.008Z,21.74
2016-08-26T10:12:54.835Z,21.94
2016-08-26T10:13:54.866Z,21.35
2016-08-26T10:14:54.904Z,21.64
2016-08-26T10:15:54.929Z,21.35
2016-08-26T10:16:54.961Z,21.35
2016-08-26T10:17:54.993Z,21.25
2016-08-26T10:18:55.024Z,21.36
2016-08-26T10:19:55.060Z,20.97
2016-08-26T10:20:55.089Z,20.57
2016-08-26T10:21:55.119Z,20.67
2016-08-26T10:22:55.149Z,20.39
2016-08-26T10:23:55.187Z,20.39
2016-08-26T10:24:55.214Z,20.59
2016-08-26T10:25:55.262Z,20.59
2016-08-26T10:26:55.295Z,20.29
2016-08-26T10:27:55.310Z,20.49
2016-08-26T10:28:55.341Z,20.01
2016-08-26T10:29:55.380Z,20.1
2016-08-26T10:30:55.416Z,19.81
2016-08-26T10:31:55.446Z,19.51
2016-08-26T10:32:55.469Z,19.71
2016-08-26T10:33:55.502Z,19.81
2016-08-26T10:34:55.534Z,19.33
2016-08-26T10:35:55.572Z,19.23
2016-08-26T10:36:55.599Z,19.43
2016-08-26T10:37:55.630Z,19.23
2016-08-26T10:38:55.663Z,19.43
2016-08-26T10:39:55.700Z,19.54
2016-08-26T10:40:55.726Z,18.95
2016-08-26T10:41:55.760Z,18.95
2016-08-26T10:42:55.797Z,19.14
2016-08-26T10:43:55.823Z,19.14
2016-08-26T10:44:55.858Z,19.25
2016-08-26T10:45:55.889Z,19.15
2016-08-26T10:46:55.923Z,18.86
2016-08-26T10:47:55.954Z,18.56
2016-08-26T10:48:55.988Z,18.96
2016-08-26T10:49:56.020Z,18.37
2016-08-26T10:50:56.060Z,18.66
2016-08-26T10:51:56.083Z,18.46
2016-08-26T10:52:56.120Z,18.27
2016-08-26T10:53:56.159Z,18.18
2016-08-26T10:54:56.187Z,17.98
2016-08-26T10:55:56.219Z,18.08
2016-08-26T10:56:56.250Z,17.88
2016-08-26T10:57:56.282Z,18.57
2016-08-26T10:58:56.316Z,18.37
2016-08-26T10:59:56.349Z,18.37
2016-08-26T11:00:56.381Z,18.27
2016-08-26T11:01:56.420Z,18.18
2016-08-26T11:02:56.449Z,17.89
2016-08-26T11:03:56.596Z,18.29
2016-08-26T11:04:56.625Z,17.69
2016-08-26T11:05:56.635Z,17.99
2016-08-26T11:06:56.676Z,17.79
2016-08-26T11:07:56.703Z,17.5
2016-08-26T11:08:56.720Z,17.69
2016-08-26T11:09:56.720Z,17.6
2016-08-26T11:10:56.720Z,17.8
2016-08-26T11:11:56.844Z,17.41
2016-08-26T11:12:56.855Z,17.6
2016-08-26T11:13:56.890Z,17.41
2016-08-26T11:14:56.904Z,17.31
2016-08-26T11:15:56.894Z,17.12
2016-08-26T11:16:56.919Z,17.22
2016-08-26T11:17:56.957Z,17.02
2016-08-26T11:18:56.986Z,16.83
2016-08-26T11:19:57.021Z,16.83
2016-08-26T11:20:57.049Z,16.63
2016-08-26T11:21:57.084Z,16.54
2016-08-26T11:22:57.120Z,16.54
2016-08-26T11:23:57.152Z,15.95
2016-08-26T11:24:57.982Z,16.35
2016-08-26T11:25:57.221Z,16.14
2016-08-26T11:26:57.254Z,16.35
2016-08-26T11:27:57.288Z,16.54
2016-08-26T11:28:57.323Z,16.64
2016-08-26T11:29:57.356Z,16.64
2016-08-26T11:30:57.391Z,16.44
2016-08-26T11:31:57.424Z,16.54
2016-08-26T11:32:57.459Z,16.64
2016-08-26T11:33:57.495Z,16.45
2016-08-26T11:34:57.528Z,16.45
2016-08-26T11:35:57.769Z,16.45
2016-08-26T11:36:57.597Z,16.25
2016-08-26T11:37:57.634Z,16.16
2016-08-26T11:38:57.664Z,16.25
2016-08-26T11:39:57.700Z,16.05
2016-08-26T11:40:57.736Z,16.26
2016-08-26T11:41:57.766Z,16.36
2016-08-26T11:42:57.853Z,16.36
2016-08-26T11:43:57.843Z,16.75
2016-08-26T11:44:57.876Z,15.97
2016-08-26T11:45:57.905Z,16.66
2016-08-26T11:46:57.940Z,16.66
2016-08-26T11:47:57.974Z,16.46
2016-08-26T11:48:58.009Z,16.56
2016-08-26T11:49:58.045Z,16.27
2016-08-26T11:50:58.079Z,16.17
2016-08-26T11:51:58.113Z,16.07
2016-08-26T11:52:58.153Z,16.17
2016-08-26T11:53:58.184Z,16.17
2016-08-26T11:54:58.217Z,16.07
2016-08-26T11:55:58.253Z,16.17
2016-08-26T11:56:58.287Z,15.88
2016-08-26T11:57:58.324Z,16.28
2016-08-26T11:58:58.358Z,16.28
2016-08-26T11:59:58.394Z,16.17
2016-08-26T12:00:58.737Z,15.88
2016-08-26T12:01:58.558Z,15.58
2016-08-26T12:02:58.588Z,15.69
2016-08-26T12:03:58.762Z,15.58
2016-08-26T12:04:58.773Z,15.58
2016-08-26T12:05:58.771Z,15.58
2016-08-26T12:06:58.782Z,15.58
2016-08-26T12:07:58.789Z,15.48
2016-08-26T12:08:58.799Z,15.69
2016-08-26T12:09:58.950Z,15.79
2016-08-26T12:10:58.848Z,15.39
2016-08-26T12:11:58.894Z,15.78
2016-08-26T12:12:58.923Z,15.69
2016-08-26T12:13:58.940Z,15.59
2016-08-26T12:14:58.933Z,15.2
2016-08-26T12:15:58.950Z,15.2
2016-08-26T12:16:58.990Z,15.2
2016-08-26T12:17:59.025Z,15.1
2016-08-26T12:18:59.057Z,14.9
2016-08-26T12:19:59.094Z,15.2
2016-08-26T12:20:59.129Z,15.3
2016-08-26T12:21:59.165Z,15.3
2016-08-26T12:22:59.199Z,15.41
2016-08-26T12:23:59.235Z,15.3
2016-08-26T12:24:59.276Z,15.11
2016-08-26T12:25:59.312Z,15.41
2016-08-26T12:26:59.343Z,15.2
2016-08-26T12:27:59.377Z,15.11
2016-08-26T12:28:59.420Z,14.92
2016-08-26T12:30:00.151Z,14.62
2016-08-26T12:30:59.482Z,14.32
2016-08-26T12:31:59.525Z,14.72
2016-08-26T12:32:59.554Z,14.81
2016-08-26T12:33:59.588Z,14.82
2016-08-26T12:34:59.625Z,14.32
2016-08-26T12:35:59.663Z,14.82
2016-08-26T12:36:59.693Z,14.42
2016-08-26T12:37:59.730Z,14.12
2016-08-26T12:38:59.771Z,14.81
2016-08-26T12:39:59.802Z,14.52
2016-08-26T12:40:59.840Z,14.82
2016-08-26T12:41:59.874Z,14.82
2016-08-26T12:42:59.910Z,14.72
2016-08-26T12:43:59.945Z,14.42
2016-08-26T12:44:59.980Z,14.12
2016-08-26T12:46:00.020Z,14.62
2016-08-26T12:47:00.053Z,14.92
2016-08-26T12:48:00.094Z,14.62
2016-08-26T12:49:00.129Z,14.82
2016-08-26T12:50:00.161Z,14.13
2016-08-26T12:51:00.196Z,13.93
2016-08-26T12:52:00.259Z,14.43
2016-08-26T12:53:00.267Z,13.74
2016-08-26T12:54:00.302Z,14.13
2016-08-26T12:55:00.344Z,14.13
2016-08-26T12:56:00.377Z,14.03